Time;durP1;ratioP1;P1;durP2;ratioP2;P2;SDS_P1;SDS_P2;PMS_P1;PMS_P2;Temp;Humidity;BMP_temperature;BMP_pressure;BME280_temperature;BME280_humidity;BME280_pressure;Samples;Min_cycle;Max_cycle;Signal;HPM_P1;HPM_P2
2022/11/06 00:00:47;;;;;;;;;;;3.00;99.90;;;;;;5054804;28;19915;-87
2022/11/06 00:03:13;;;;;;;;;;;3.00;99.90;;;;;;5072385;28;20011;-87
2022/11/06 00:08:34;;;;;;;;;;;3.00;99.90;;;;;;5054847;28;19908;-86
2022/11/06 00:11:00;;;;;;;;;;;3.00;99.90;;;;;;5039418;28;19930;-88
2022/11/06 00:13:26;;;;;;;;;;;3.10;99.90;;;;;;5039201;28;19909;-87
2022/11/06 00:16:02;;;;;;;;;;;3.10;99.90;;;;;;5055363;28;19964;-87
2022/11/06 00:18:27;;;;;;;;;;;3.00;99.90;;;;;;5041249;28;19909;-87
2022/11/06 00:20:53;;;;;;;;;;;3.00;99.90;;;;;;5056254;28;19930;-87
2022/11/06 00:23:18;;;;;;;;;;;2.90;99.90;;;;;;5062354;28;19999;-87
2022/11/06 00:25:44;;;;;;;;;;;2.90;99.90;;;;;;5071155;28;19916;-87
2022/11/06 00:28:11;;;;;;;;;;;2.80;99.90;;;;;;5055506;28;19955;-87
2022/11/06 00:31:08;;;;;;;;;;;2.80;99.90;;;;;;5070744;28;19913;-87
2022/11/06 00:33:34;;;;;;;;;;;2.70;99.90;;;;;;5036606;28;19908;-87
2022/11/06 00:36:07;;;;;;;;;;;2.70;99.90;;;;;;5059682;28;19915;-87
2022/11/06 00:38:33;;;;;;;;;;;2.60;99.90;;;;;;5055748;28;19912;-86
2022/11/06 00:41:03;;;;;;;;;;;2.50;99.90;;;;;;5043594;28;19935;-87
2022/11/06 00:43:29;;;;;;;;;;;2.40;99.90;;;;;;5057705;28;20305;-87
2022/11/06 00:48:58;;;;;;;;;;;2.40;99.90;;;;;;5048936;28;20360;-87
2022/11/06 00:51:28;;;;;;;;;;;2.30;99.90;;;;;;5059858;28;19926;-87
2022/11/06 00:54:04;;;;;;;;;;;2.20;99.90;;;;;;5038377;28;19912;-87
2022/11/06 00:56:36;;;;;;;;;;;2.20;99.90;;;;;;5079970;28;19908;-87
2022/11/06 00:59:03;;;;;;;;;;;2.10;99.90;;;;;;5040339;28;19999;-87
2022/11/06 01:01:33;;;;;;;;;;;2.10;99.90;;;;;;5045859;28;19905;-87
2022/11/06 01:04:14;;;;;;;;;;;2.20;99.90;;;;;;5060674;28;19919;-87
2022/11/06 01:06:41;;;;;;;;;;;2.30;99.90;;;;;;5070637;28;19943;-87
2022/11/06 01:09:07;;;;;;;;;;;2.30;99.90;;;;;;5053521;28;19920;-87
2022/11/06 01:11:37;;;;;;;;;;;2.30;99.90;;;;;;5067969;28;20481;-86
2022/11/06 01:14:03;;;;;;;;;;;2.20;99.90;;;;;;5060636;28;19954;-86
2022/11/06 01:16:41;;;;;;;;;;;2.20;99.90;;;;;;5060540;28;20356;-87
2022/11/06 01:19:07;;;;;;;;;;;2.10;99.90;;;;;;5047182;28;19913;-87
2022/11/06 01:21:42;;;;;;;;;;;1.90;99.90;;;;;;5053360;28;19915;-87
2022/11/06 01:24:12;;;;;;;;;;;1.80;99.90;;;;;;5051409;28;19912;-86
2022/11/06 01:26:38;;;;;;;;;;;1.70;99.90;;;;;;5055984;28;20430;-87
2022/11/06 01:29:05;;;;;;;;;;;1.70;99.90;;;;;;5069943;28;19905;-86
2022/11/06 01:31:31;;;;;;;;;;;1.50;99.90;;;;;;5059660;28;20030;-87
2022/11/06 01:33:57;;;;;;;;;;;1.60;99.90;;;;;;5069174;28;19965;-87
2022/11/06 01:36:23;;;;;;;;;;;1.70;99.90;;;;;;5062276;28;19948;-86
2022/11/06 01:38:50;;;;;;;;;;;1.90;99.90;;;;;;5074877;28;19916;-87
2022/11/06 01:41:23;;;;;;;;;;;2.00;99.90;;;;;;5066464;28;20541;-86
2022/11/06 01:43:57;;;;;;;;;;;2.10;99.90;;;;;;5075149;28;19966;-86
2022/11/06 01:46:24;;;;;;;;;;;2.30;99.90;;;;;;5056229;28;19912;-86
2022/11/06 01:48:54;;;;;;;;;;;2.50;99.90;;;;;;5054765;28;19999;-87
2022/11/06 01:51:21;;;;;;;;;;;2.60;99.90;;;;;;5054752;28;19915;-86
2022/11/06 01:53:47;;;;;;;;;;;2.60;99.90;;;;;;5075538;28;19919;-86
2022/11/06 01:56:13;;;;;;;;;;;2.60;99.90;;;;;;5060621;28;19904;-87
2022/11/06 01:58:40;;;;;;;;;;;2.60;99.90;;;;;;5092893;28;19909;-86
2022/11/06 02:01:09;;;;;;;;;;;2.60;99.90;;;;;;5043360;28;19915;-87
2022/11/06 02:03:36;;;;;;;;;;;2.50;99.90;;;;;;5045367;28;19913;-86
2022/11/06 02:06:02;;;;;;;;;;;2.40;99.90;;;;;;5047564;28;19908;-87
2022/11/06 02:08:28;;;;;;;;;;;2.30;99.90;;;;;;5061015;28;19913;-87
2022/11/06 02:10:54;;;;;;;;;;;2.10;99.90;;;;;;5045601;28;19977;-87
2022/11/06 02:13:20;;;;;;;;;;;2.20;99.90;;;;;;5060762;28;19915;-87
2022/11/06 02:15:51;;;;;;;;;;;2.30;99.90;;;;;;5054016;28;19913;-86
2022/11/06 02:18:35;;;;;;;;;;;2.40;99.90;;;;;;5062559;28;19916;-87
2022/11/06 02:21:09;;;;;;;;;;;2.50;99.90;;;;;;5055743;28;19936;-87
2022/11/06 02:23:34;;;;;;;;;;;2.60;99.90;;;;;;5061499;28;19978;-87
2022/11/06 02:26:11;;;;;;;;;;;2.70;99.90;;;;;;5043591;28;19943;-87
2022/11/06 02:28:44;;;;;;;;;;;2.80;99.90;;;;;;5062161;28;19960;-87
2022/11/06 02:31:12;;;;;;;;;;;2.90;99.90;;;;;;5052312;28;19913;-87
2022/11/06 02:33:42;;;;;;;;;;;2.90;99.90;;;;;;5080743;28;19940;-87
2022/11/06 02:36:09;;;;;;;;;;;3.00;99.90;;;;;;5055381;28;19916;-87
2022/11/06 02:38:40;;;;;;;;;;;3.00;99.90;;;;;;5065574;28;19961;-88
2022/11/06 02:41:07;;;;;;;;;;;3.00;99.90;;;;;;5056404;28;19909;-87
2022/11/06 02:43:38;;;;;;;;;;;3.00;99.90;;;;;;5084005;28;20030;-88
2022/11/06 02:46:07;;;;;;;;;;;3.00;99.90;;;;;;5058419;28;19920;-88
2022/11/06 02:48:35;;;;;;;;;;;3.00;99.90;;;;;;5069058;28;20556;-88
2022/11/06 02:51:02;;;;;;;;;;;2.90;99.90;;;;;;5066444;28;19909;-88
2022/11/06 02:53:29;;;;;;;;;;;3.00;99.90;;;;;;5069229;28;19909;-88
2022/11/06 02:55:56;;;;;;;;;;;3.00;99.90;;;;;;5085630;28;19909;-88
2022/11/06 02:58:43;;;;;;;;;;;3.10;99.90;;;;;;5054559;28;19911;-87
2022/11/06 03:01:18;;;;;;;;;;;3.10;99.90;;;;;;5046540;28;19909;-88
2022/11/06 03:03:47;;;;;;;;;;;3.10;99.90;;;;;;5057696;28;19913;-88
2022/11/06 03:06:31;;;;;;;;;;;3.00;99.90;;;;;;5044973;28;19908;-88
2022/11/06 03:09:01;;;;;;;;;;;3.00;99.90;;;;;;5058423;28;20596;-88
2022/11/06 03:11:39;;;;;;;;;;;3.00;99.90;;;;;;5063571;28;19912;-88
2022/11/06 03:14:11;;;;;;;;;;;2.90;99.90;;;;;;5051564;28;19909;-87
2022/11/06 03:20:24;;;;;;;;;;;2.90;99.90;;;;;;5048708;28;19916;-87
2022/11/06 03:22:53;;;;;;;;;;;2.90;99.90;;;;;;5044239;28;19944;-87
2022/11/06 03:25:18;;;;;;;;;;;2.90;99.90;;;;;;5094308;28;19920;-87
2022/11/06 03:28:02;;;;;;;;;;;2.90;99.90;;;;;;5046486;28;19908;-87
2022/11/06 03:30:28;;;;;;;;;;;3.00;99.90;;;;;;5062180;28;19973;-87
2022/11/06 03:32:57;;;;;;;;;;;3.00;99.90;;;;;;5054556;28;19904;-88
2022/11/06 03:35:33;;;;;;;;;;;3.00;99.90;;;;;;5045542;28;19908;-88
2022/11/06 03:38:06;;;;;;;;;;;3.10;99.90;;;;;;5056432;28;19916;-88
2022/11/06 03:40:35;;;;;;;;;;;3.10;99.90;;;;;;5062623;28;19973;-88
2022/11/06 03:43:03;;;;;;;;;;;3.10;99.90;;;;;;5062405;28;20538;-88
2022/11/06 03:45:29;;;;;;;;;;;3.10;99.90;;;;;;5097321;28;19934;-88
2022/11/06 03:48:07;;;;;;;;;;;3.10;99.90;;;;;;5055350;28;19931;-88
2022/11/06 03:50:34;;;;;;;;;;;3.10;99.90;;;;;;5064380;28;19999;-88
2022/11/06 03:53:20;;;;;;;;;;;3.10;99.90;;;;;;5038965;28;19916;-88
2022/11/06 03:55:49;;;;;;;;;;;3.10;99.90;;;;;;5067439;28;19908;-87
2022/11/06 03:58:26;;;;;;;;;;;3.00;99.90;;;;;;5055522;28;19909;-88
2022/11/06 04:00:54;;;;;;;;;;;3.00;99.90;;;;;;5087048;28;19917;-87
2022/11/06 04:03:29;;;;;;;;;;;2.90;99.90;;;;;;5039571;28;19916;-87
2022/11/06 04:05:57;;;;;;;;;;;3.00;99.90;;;;;;5060862;28;19914;-88
2022/11/06 04:14:00;;;;;;;;;;;2.90;99.90;;;;;;5054540;28;19912;-88
2022/11/06 04:16:46;;;;;;;;;;;2.90;99.90;;;;;;5078937;28;19908;-88
2022/11/06 04:19:13;;;;;;;;;;;2.90;99.90;;;;;;5073899;28;20360;-88
2022/11/06 04:21:46;;;;;;;;;;;2.90;99.90;;;;;;5069116;28;20003;-88
2022/11/06 04:28:04;;;;;;;;;;;2.90;99.90;;;;;;5059360;28;20622;-87
2022/11/06 04:30:34;;;;;;;;;;;2.90;99.90;;;;;;5043029;28;19908;-87
2022/11/06 04:33:02;;;;;;;;;;;2.80;99.90;;;;;;5053896;28;19919;-88
2022/11/06 04:35:39;;;;;;;;;;;2.90;99.90;;;;;;5044466;28;20623;-87
2022/11/06 04:38:07;;;;;;;;;;;2.90;99.90;;;;;;5056744;28;19915;-88
2022/11/06 04:40:39;;;;;;;;;;;2.90;99.90;;;;;;5094655;28;19931;-88
2022/11/06 04:43:06;;;;;;;;;;;2.90;99.90;;;;;;5059573;28;19943;-88
2022/11/06 04:45:36;;;;;;;;;;;3.00;99.90;;;;;;5064731;28;19920;-87
2022/11/06 04:48:03;;;;;;;;;;;3.00;99.90;;;;;;5056997;28;19988;-88
2022/11/06 04:50:31;;;;;;;;;;;3.00;99.90;;;;;;5083000;28;19947;-88
2022/11/06 04:52:58;;;;;;;;;;;3.00;99.90;;;;;;5055378;28;19918;-88
2022/11/06 04:55:24;;;;;;;;;;;3.00;99.90;;;;;;5082961;28;19905;-88
2022/11/06 04:57:49;;;;;;;;;;;2.90;99.90;;;;;;5049524;28;20637;-88
2022/11/06 05:00:15;;;;;;;;;;;2.80;99.90;;;;;;5064768;28;19908;-88
2022/11/06 05:02:41;;;;;;;;;;;2.80;99.90;;;;;;5047889;28;19912;-88
2022/11/06 05:05:07;;;;;;;;;;;2.80;99.90;;;;;;5055254;28;19967;-88
2022/11/06 05:07:33;;;;;;;;;;;2.60;99.90;;;;;;5058636;28;19955;-87
2022/11/06 05:09:58;;;;;;;;;;;2.50;99.90;;;;;;5088689;28;19905;-87
2022/11/06 05:15:56;;;;;;;;;;;2.20;99.90;;;;;;5057630;28;19965;-87
2022/11/06 05:18:22;;;;;;;;;;;2.00;99.90;;;;;;5064775;28;20370;-87
2022/11/06 05:20:47;;;;;;;;;;;1.90;99.90;;;;;;5059022;28;19909;-87
2022/11/06 05:23:14;;;;;;;;;;;1.80;99.90;;;;;;5047204;28;19938;-88
2022/11/06 05:25:41;;;;;;;;;;;1.90;99.90;;;;;;5061760;28;20010;-87
2022/11/06 05:28:07;;;;;;;;;;;1.90;99.90;;;;;;5048326;28;19913;-88
2022/11/06 05:30:35;;;;;;;;;;;2.00;99.90;;;;;;5045417;28;19915;-87
2022/11/06 05:33:00;;;;;;;;;;;1.80;99.90;;;;;;5056895;28;19912;-88
2022/11/06 05:35:26;;;;;;;;;;;1.60;99.90;;;;;;5047075;28;19923;-88
2022/11/06 05:37:59;;;;;;;;;;;1.40;99.90;;;;;;5058758;28;19916;-87
2022/11/06 05:40:24;;;;;;;;;;;1.30;99.90;;;;;;5047642;28;19935;-87
2022/11/06 05:42:50;;;;;;;;;;;1.30;99.90;;;;;;5060964;28;19921;-86
2022/11/06 05:45:15;;;;;;;;;;;1.20;99.90;;;;;;5081605;28;19921;-87
2022/11/06 05:47:41;;;;;;;;;;;1.10;99.90;;;;;;5053680;28;20299;-88
2022/11/06 05:50:08;;;;;;;;;;;1.00;99.90;;;;;;5075315;28;19912;-87
2022/11/06 05:52:34;;;;;;;;;;;0.90;99.90;;;;;;5062784;28;19920;-87
2022/11/06 05:55:00;;;;;;;;;;;0.80;99.90;;;;;;5058994;28;19908;-88
2022/11/06 05:57:25;;;;;;;;;;;0.80;99.90;;;;;;5047270;28;19950;-88
2022/11/06 05:59:51;;;;;;;;;;;0.90;99.90;;;;;;5060384;28;19938;-87
2022/11/06 06:02:16;;;;;;;;;;;1.10;99.90;;;;;;5064327;28;19915;-88
2022/11/06 06:04:42;;;;;;;;;;;1.20;99.90;;;;;;5042534;28;20528;-88
2022/11/06 06:07:07;;;;;;;;;;;1.20;99.90;;;;;;5057426;28;19917;-88
2022/11/06 06:09:33;;;;;;;;;;;1.30;99.90;;;;;;5084583;28;19940;-87
2022/11/06 06:11:59;;;;;;;;;;;1.30;99.90;;;;;;5043526;28;19919;-87
2022/11/06 06:14:24;;;;;;;;;;;1.10;99.90;;;;;;5053658;28;20353;-87
2022/11/06 06:16:50;;;;;;;;;;;1.20;99.90;;;;;;5083731;28;19990;-87
2022/11/06 06:19:15;;;;;;;;;;;1.30;99.90;;;;;;5054008;28;19913;-87
2022/11/06 06:21:41;;;;;;;;;;;1.40;99.90;;;;;;5056948;28;19963;-87
2022/11/06 06:24:22;;;;;;;;;;;1.50;99.90;;;;;;5030189;28;20019;-87
2022/11/06 06:26:47;;;;;;;;;;;1.50;99.90;;;;;;5077793;28;19912;-88
2022/11/06 06:29:13;;;;;;;;;;;1.60;99.90;;;;;;5056559;28;19951;-87
2022/11/06 06:31:39;;;;;;;;;;;1.60;99.90;;;;;;5069965;28;19963;-88
2022/11/06 06:34:04;;;;;;;;;;;1.60;99.90;;;;;;5065837;28;19963;-87
2022/11/06 06:36:30;;;;;;;;;;;1.60;99.90;;;;;;5069492;28;19936;-88
2022/11/06 06:38:55;;;;;;;;;;;1.50;99.90;;;;;;5085856;28;20691;-89
2022/11/06 06:41:21;;;;;;;;;;;1.50;99.90;;;;;;5050904;28;19908;-87
2022/11/06 06:43:48;;;;;;;;;;;1.50;99.90;;;;;;5061393;28;20368;-87
2022/11/06 06:46:13;;;;;;;;;;;1.60;99.90;;;;;;5048795;28;19908;-87
2022/11/06 06:48:39;;;;;;;;;;;1.60;99.90;;;;;;5053185;28;19908;-87
2022/11/06 06:51:06;;;;;;;;;;;1.70;99.90;;;;;;5075306;28;20367;-88
2022/11/06 06:53:33;;;;;;;;;;;1.90;99.90;;;;;;5034804;28;19916;-88
2022/11/06 06:56:00;;;;;;;;;;;2.00;99.90;;;;;;5042877;28;19923;-88
2022/11/06 06:58:26;;;;;;;;;;;2.20;99.90;;;;;;5039071;28;19908;-89
2022/11/06 07:00:52;;;;;;;;;;;2.20;99.90;;;;;;5075539;28;20001;-89
2022/11/06 07:03:18;;;;;;;;;;;2.30;99.90;;;;;;5059285;28;20364;-87
2022/11/06 07:05:45;;;;;;;;;;;2.30;99.90;;;;;;5063949;28;19915;-87
2022/11/06 07:08:11;;;;;;;;;;;2.40;99.90;;;;;;5060475;28;19908;-88
2022/11/06 07:10:36;;;;;;;;;;;2.50;99.90;;;;;;5046828;28;19920;-88
2022/11/06 07:13:02;;;;;;;;;;;2.50;99.90;;;;;;5049226;28;19916;-88
2022/11/06 07:15:28;;;;;;;;;;;2.50;99.90;;;;;;5059004;28;19984;-89
2022/11/06 07:17:53;;;;;;;;;;;2.60;99.90;;;;;;5062914;28;20262;-89
2022/11/06 07:20:19;;;;;;;;;;;2.60;99.90;;;;;;5049650;28;19915;-88
2022/11/06 07:22:45;;;;;;;;;;;2.70;99.90;;;;;;5043193;28;19963;-88
2022/11/06 07:25:10;;;;;;;;;;;2.70;99.90;;;;;;5062634;28;20013;-89
2022/11/06 07:27:36;;;;;;;;;;;2.80;99.90;;;;;;5041081;28;19991;-89
2022/11/06 07:30:02;;;;;;;;;;;2.90;99.90;;;;;;5061826;28;19904;-90
2022/11/06 07:32:27;;;;;;;;;;;3.00;99.90;;;;;;5047706;28;19999;-88
2022/11/06 07:34:53;;;;;;;;;;;3.00;99.90;;;;;;5036421;28;19915;-89
2022/11/06 07:37:18;;;;;;;;;;;3.10;99.90;;;;;;5064613;28;19912;-89
2022/11/06 07:39:44;;;;;;;;;;;3.20;99.90;;;;;;5038252;28;19916;-89
2022/11/06 07:42:10;;;;;;;;;;;3.20;99.90;;;;;;5064220;28;19904;-89
2022/11/06 07:44:36;;;;;;;;;;;3.20;99.90;;;;;;5078708;28;19987;-89
2022/11/06 07:47:02;;;;;;;;;;;3.30;99.90;;;;;;5086965;28;19909;-89
2022/11/06 07:49:28;;;;;;;;;;;3.30;99.90;;;;;;5042293;28;19939;-87
2022/11/06 07:51:53;;;;;;;;;;;3.30;99.90;;;;;;5065815;28;19916;-88
2022/11/06 07:54:19;;;;;;;;;;;3.30;99.90;;;;;;5047599;28;19916;-87
2022/11/06 07:56:45;;;;;;;;;;;3.30;99.90;;;;;;5050918;28;19916;-87
2022/11/06 07:59:10;;;;;;;;;;;3.40;99.90;;;;;;5051759;28;19913;-89
2022/11/06 08:01:36;;;;;;;;;;;3.50;99.90;;;;;;5051674;28;20402;-88
2022/11/06 08:04:02;;;;;;;;;;;3.50;99.90;;;;;;5050672;28;20280;-88
2022/11/06 08:06:27;;;;;;;;;;;3.60;99.90;;;;;;5088527;28;20307;-88
2022/11/06 08:08:53;;;;;;;;;;;3.60;99.90;;;;;;5074541;28;19908;-88
2022/11/06 08:11:19;;;;;;;;;;;3.70;99.90;;;;;;5042755;28;20007;-88
2022/11/06 08:13:45;;;;;;;;;;;3.70;99.90;;;;;;5047988;28;19909;-88
2022/11/06 08:16:12;;;;;;;;;;;3.70;99.90;;;;;;5040175;28;19917;-88
2022/11/06 08:18:38;;;;;;;;;;;3.70;99.90;;;;;;5053512;28;20007;-88
2022/11/06 08:21:04;;;;;;;;;;;3.80;99.90;;;;;;5045530;28;19963;-88
2022/11/06 08:23:30;;;;;;;;;;;3.80;99.90;;;;;;5059024;28;19917;-89
2022/11/06 08:25:56;;;;;;;;;;;3.80;99.90;;;;;;5050742;28;19909;-87
2022/11/06 08:28:23;;;;;;;;;;;3.80;99.90;;;;;;5041550;28;19966;-88
2022/11/06 08:30:48;;;;;;;;;;;3.80;99.90;;;;;;5051282;28;20352;-88
2022/11/06 08:33:14;;;;;;;;;;;3.80;99.90;;;;;;5083978;28;19912;-88
2022/11/06 08:35:40;;;;;;;;;;;3.90;99.90;;;;;;5052164;28;19913;-88
2022/11/06 08:38:05;;;;;;;;;;;3.90;99.90;;;;;;5051145;28;19909;-87
2022/11/06 08:40:32;;;;;;;;;;;4.00;99.90;;;;;;5060972;28;19965;-87
2022/11/06 08:42:59;;;;;;;;;;;4.10;99.90;;;;;;5042828;28;19908;-88
2022/11/06 08:45:24;;;;;;;;;;;4.20;99.90;;;;;;5061614;28;19912;-89
2022/11/06 08:47:50;;;;;;;;;;;4.30;99.90;;;;;;5051599;28;19909;-89
2022/11/06 08:50:16;;;;;;;;;;;4.40;99.90;;;;;;5039903;28;19952;-88
2022/11/06 08:52:41;;;;;;;;;;;4.40;99.90;;;;;;5082410;28;20275;-89
2022/11/06 08:55:07;;;;;;;;;;;4.50;99.90;;;;;;5082175;28;19971;-89
2022/11/06 08:57:33;;;;;;;;;;;4.50;99.90;;;;;;5040306;28;19909;-89
2022/11/06 08:59:58;;;;;;;;;;;4.60;99.90;;;;;;5052189;28;19909;-89
2022/11/06 09:02:24;;;;;;;;;;;4.70;99.90;;;;;;5054641;28;20422;-88
2022/11/06 09:04:49;;;;;;;;;;;4.70;99.90;;;;;;5072539;28;19920;-88
2022/11/06 09:07:16;;;;;;;;;;;4.80;99.90;;;;;;5060072;28;19909;-88
2022/11/06 09:09:41;;;;;;;;;;;4.90;99.90;;;;;;5084084;28;19916;-88
2022/11/06 09:12:35;;;;;;;;;;;4.90;99.90;;;;;;5056672;28;19908;-88
2022/11/06 09:15:01;;;;;;;;;;;5.10;99.90;;;;;;5075768;28;19931;-88
2022/11/06 09:17:26;;;;;;;;;;;5.20;99.90;;;;;;5054863;28;19917;-88
2022/11/06 09:19:52;;;;;;;;;;;5.20;99.90;;;;;;5072462;28;19912;-89
2022/11/06 09:22:18;;;;;;;;;;;5.30;99.90;;;;;;5045154;28;19920;-88
2022/11/06 09:24:43;;;;;;;;;;;5.40;99.90;;;;;;5070965;28;19948;-89
2022/11/06 09:27:09;;;;;;;;;;;5.50;99.90;;;;;;5050069;28;19912;-89
2022/11/06 09:29:34;;;;;;;;;;;5.60;99.90;;;;;;5051773;28;20323;-89
2022/11/06 09:32:00;;;;;;;;;;;5.70;99.90;;;;;;5042348;28;19919;-89
2022/11/06 09:34:25;;;;;;;;;;;5.70;99.90;;;;;;5044067;28;20015;-89
2022/11/06 09:36:51;;;;;;;;;;;5.90;99.90;;;;;;5076185;28;19916;-90
2022/11/06 09:39:16;;;;;;;;;;;5.90;99.90;;;;;;5065554;28;19924;-89
2022/11/06 09:41:57;;;;;;;;;;;6.00;99.90;;;;;;5074788;28;20035;-90
2022/11/06 09:44:31;;;;;;;;;;;6.10;99.90;;;;;;5049911;28;19913;-90
2022/11/06 09:47:22;;;;;;;;;;;6.20;99.90;;;;;;5070528;28;19912;-89
2022/11/06 09:49:52;;;;;;;;;;;6.30;99.90;;;;;;5038965;28;19963;-88
2022/11/06 09:52:32;;;;;;;;;;;6.40;99.90;;;;;;5045979;28;19913;-88
2022/11/06 09:55:00;;;;;;;;;;;6.50;99.90;;;;;;5056868;28;20394;-88
2022/11/06 09:57:38;;;;;;;;;;;6.70;99.90;;;;;;5063190;28;19908;-87
2022/11/06 10:00:04;;;;;;;;;;;6.80;99.90;;;;;;5060704;28;19909;-88
2022/11/06 10:02:39;;;;;;;;;;;7.00;99.90;;;;;;5065167;28;19917;-88
2022/11/06 10:05:07;;;;;;;;;;;7.20;99.90;;;;;;5053060;28;19948;-87
2022/11/06 10:07:34;;;;;;;;;;;7.40;99.90;;;;;;5078023;28;20659;-88
2022/11/06 10:10:01;;;;;;;;;;;7.50;99.90;;;;;;5054635;28;19912;-89
2022/11/06 10:12:39;;;;;;;;;;;7.90;99.90;;;;;;5057213;28;19913;-89
2022/11/06 10:15:21;;;;;;;;;;;7.80;99.90;;;;;;5070583;28;19912;-89
2022/11/06 10:17:55;;;;;;;;;;;7.80;99.90;;;;;;5059871;28;19920;-89
2022/11/06 10:20:32;;;;;;;;;;;7.60;99.90;;;;;;5093029;28;20608;-89
2022/11/06 10:23:16;;;;;;;;;;;7.50;99.90;;;;;;5052561;28;19912;-89
2022/11/06 10:25:54;;;;;;;;;;;7.80;99.90;;;;;;5059365;28;19916;-88
2022/11/06 10:28:27;;;;;;;;;;;7.70;99.90;;;;;;5080216;28;19908;-88
2022/11/06 10:30:53;;;;;;;;;;;7.70;99.90;;;;;;5091986;28;20280;-88
2022/11/06 10:33:22;;;;;;;;;;;7.80;99.90;;;;;;5048723;28;19909;-88
2022/11/06 10:36:01;;;;;;;;;;;8.00;99.90;;;;;;5032423;28;20272;-89
2022/11/06 10:38:32;;;;;;;;;;;7.80;99.90;;;;;;5054863;28;19913;-88
2022/11/06 10:40:58;;;;;;;;;;;7.60;99.90;;;;;;5053695;28;20641;-88
2022/11/06 10:43:32;;;;;;;;;;;7.60;99.90;;;;;;5047870;28;19909;-89
2022/11/06 10:46:01;;;;;;;;;;;7.50;99.90;;;;;;5065236;28;20362;-88
2022/11/06 10:48:31;;;;;;;;;;;7.70;99.90;;;;;;5040984;28;19913;-88
2022/11/06 10:51:03;;;;;;;;;;;7.60;99.90;;;;;;5036228;28;19917;-88
2022/11/06 10:57:07;;;;;;;;;;;7.70;99.90;;;;;;5051289;28;19916;-88
2022/11/06 10:59:33;;;;;;;;;;;7.40;99.90;;;;;;5053691;28;20272;-88
2022/11/06 11:01:58;;;;;;;;;;;7.50;99.90;;;;;;5049275;28;19912;-88
2022/11/06 11:04:24;;;;;;;;;;;7.40;99.90;;;;;;5049606;28;19919;-88
2022/11/06 11:06:50;;;;;;;;;;;7.40;99.90;;;;;;5034134;28;19936;-88
2022/11/06 11:09:29;;;;;;;;;;;7.50;99.90;;;;;;5044434;28;19912;-88
2022/11/06 11:11:54;;;;;;;;;;;7.50;99.90;;;;;;5051867;28;20284;-88
2022/11/06 11:14:38;;;;;;;;;;;7.60;99.90;;;;;;5048377;28;19916;-88
2022/11/06 11:17:06;;;;;;;;;;;7.50;99.90;;;;;;5046587;28;19908;-88
2022/11/06 11:19:36;;;;;;;;;;;7.50;99.90;;;;;;5047782;28;19909;-88
2022/11/06 11:22:04;;;;;;;;;;;7.50;99.90;;;;;;5052949;28;19919;-88
2022/11/06 11:24:29;;;;;;;;;;;7.60;99.90;;;;;;5049006;28;19951;-88
2022/11/06 11:27:00;;;;;;;;;;;7.50;99.90;;;;;;5052801;28;19909;-88
2022/11/06 11:29:28;;;;;;;;;;;7.60;99.90;;;;;;5049172;28;20509;-88
2022/11/06 11:32:01;;;;;;;;;;;7.70;99.90;;;;;;5053010;28;19952;-88
2022/11/06 11:34:28;;;;;;;;;;;8.00;99.90;;;;;;5052292;28;19966;-88
2022/11/06 11:37:01;;;;;;;;;;;8.00;99.90;;;;;;5047614;28;19958;-89
2022/11/06 11:39:29;;;;;;;;;;;8.00;99.90;;;;;;5052972;28;20387;-86
2022/11/06 11:42:14;;;;;;;;;;;8.20;99.90;;;;;;5047759;28;19935;-88
2022/11/06 11:44:40;;;;;;;;;;;8.00;99.90;;;;;;5070357;28;19912;-88
2022/11/06 11:47:18;;;;;;;;;;;8.00;99.90;;;;;;5058618;28;19909;-88
2022/11/06 11:49:44;;;;;;;;;;;8.10;99.90;;;;;;5052728;28;19920;-88
2022/11/06 11:52:11;;;;;;;;;;;8.10;99.90;;;;;;5036757;28;20294;-87
2022/11/06 11:54:53;;;;;;;;;;;8.10;99.90;;;;;;5036251;28;19917;-87
2022/11/06 11:57:21;;;;;;;;;;;8.00;99.90;;;;;;5035666;28;20315;-88
2022/11/06 11:59:46;;;;;;;;;;;8.10;99.90;;;;;;5082119;28;20288;-88
2022/11/06 12:02:24;;;;;;;;;;;8.00;99.90;;;;;;5044814;28;19909;-88
2022/11/06 12:04:52;;;;;;;;;;;8.00;99.90;;;;;;5065908;28;19917;-88
2022/11/06 12:07:24;;;;;;;;;;;8.00;99.90;;;;;;5046334;28;19991;-88
2022/11/06 12:09:50;;;;;;;;;;;8.10;99.90;;;;;;5050384;28;19919;-88
2022/11/06 12:12:23;;;;;;;;;;;8.10;99.90;;;;;;5049721;28;20280;-88
2022/11/06 12:15:15;;;;;;;;;;;8.20;99.90;;;;;;5052214;28;20275;-88
2022/11/06 12:17:41;;;;;;;;;;;8.30;99.90;;;;;;5066305;28;19948;-88
2022/11/06 12:20:11;;;;;;;;;;;8.30;99.90;;;;;;5036175;28;19962;-88
2022/11/06 12:22:41;;;;;;;;;;;8.40;99.90;;;;;;5053315;28;19951;-88
2022/11/06 12:25:34;;;;;;;;;;;8.40;99.90;;;;;;5044512;28;20360;-88
2022/11/06 12:28:01;;;;;;;;;;;8.40;99.90;;;;;;5019488;28;19915;-88
2022/11/06 12:30:27;;;;;;;;;;;8.40;99.90;;;;;;5051877;28;19919;-88
2022/11/06 12:32:53;;;;;;;;;;;8.40;99.90;;;;;;5038477;28;19913;-88
2022/11/06 12:35:29;;;;;;;;;;;8.40;99.90;;;;;;5038787;28;20020;-88
2022/11/06 12:38:09;;;;;;;;;;;8.30;99.90;;;;;;5038925;28;20038;-88
2022/11/06 12:40:39;;;;;;;;;;;8.30;99.90;;;;;;5068909;28;19913;-88
2022/11/06 12:43:12;;;;;;;;;;;8.30;99.90;;;;;;5051445;28;19952;-88
2022/11/06 12:45:56;;;;;;;;;;;8.40;99.90;;;;;;5045062;28;19956;-87
2022/11/06 12:48:22;;;;;;;;;;;8.50;99.90;;;;;;5031479;28;19909;-88
2022/11/06 12:50:57;;;;;;;;;;;8.40;99.90;;;;;;5045042;28;19941;-88
2022/11/06 12:53:28;;;;;;;;;;;8.40;99.90;;;;;;5061167;28;20357;-88
2022/11/06 12:56:01;;;;;;;;;;;8.40;99.90;;;;;;5066743;28;19909;-89
2022/11/06 12:58:27;;;;;;;;;;;8.30;99.90;;;;;;5035091;28;19924;-88
2022/11/06 13:01:01;;;;;;;;;;;8.30;99.90;;;;;;5050404;28;19921;-87
2022/11/06 13:03:36;;;;;;;;;;;8.30;99.90;;;;;;5035749;28;19913;-89
2022/11/06 13:06:19;;;;;;;;;;;8.30;99.90;;;;;;5062914;28;20273;-88
2022/11/06 13:08:49;;;;;;;;;;;8.30;99.90;;;;;;4970903;28;20696;-88
2022/11/06 13:11:34;;;;;;;;;;;8.40;99.90;;;;;;4999726;28;19988;-88
2022/11/06 13:14:09;;;;;;;;;;;8.50;99.90;;;;;;5011740;28;19962;-88
2022/11/06 13:16:37;;;;;;;;;;;8.60;99.90;;;;;;5038604;28;19913;-88
2022/11/06 13:19:28;;;;;;;;;;;8.80;99.90;;;;;;5051985;28;19909;-89
2022/11/06 13:21:53;;;;;;;;;;;8.70;99.90;;;;;;5053481;28;19917;-88
2022/11/06 13:24:38;;;;;;;;;;;8.80;99.90;;;;;;5052549;28;20317;-88
2022/11/06 13:27:18;;;;;;;;;;;8.80;99.90;;;;;;5064660;28;19909;-88
2022/11/06 13:29:44;;;;;;;;;;;8.70;99.90;;;;;;5053598;28;19963;-88
2022/11/06 13:32:12;;;;;;;;;;;8.60;99.90;;;;;;5041386;28;20360;-88
2022/11/06 13:34:39;;;;;;;;;;;8.60;99.90;;;;;;5045420;28;19908;-89
2022/11/06 13:37:10;;;;;;;;;;;8.70;99.90;;;;;;5062772;28;19909;-88
2022/11/06 13:39:43;;;;;;;;;;;8.60;99.90;;;;;;5044126;28;19972;-88
2022/11/06 13:42:13;;;;;;;;;;;8.50;99.90;;;;;;5045812;28;19916;-88
2022/11/06 13:44:39;;;;;;;;;;;8.50;99.90;;;;;;5068471;28;19913;-88
2022/11/06 13:47:11;;;;;;;;;;;8.60;99.90;;;;;;5036001;28;20364;-89
2022/11/06 13:50:00;;;;;;;;;;;8.50;99.90;;;;;;5036180;28;19948;-88
2022/11/06 13:52:33;;;;;;;;;;;8.60;99.90;;;;;;5073268;28;19909;-87
2022/11/06 13:54:59;;;;;;;;;;;8.60;99.90;;;;;;5048228;28;19944;-88
2022/11/06 13:57:47;;;;;;;;;;;8.60;99.90;;;;;;5088728;28;19966;-86
2022/11/06 14:00:32;;;;;;;;;;;8.50;99.90;;;;;;5059042;28;19908;-86
2022/11/06 14:03:16;;;;;;;;;;;8.60;99.90;;;;;;5086547;28;20001;-86
2022/11/06 14:05:56;;;;;;;;;;;8.50;99.90;;;;;;5081619;28;19916;-87
2022/11/06 14:08:25;;;;;;;;;;;8.50;99.90;;;;;;5058333;28;19944;-86
2022/11/06 14:10:56;;;;;;;;;;;8.60;99.90;;;;;;5085800;28;19905;-86
2022/11/06 14:13:22;;;;;;;;;;;8.50;99.90;;;;;;5055329;28;19909;-86
2022/11/06 14:15:48;;;;;;;;;;;8.60;99.90;;;;;;5072170;28;19979;-87
2022/11/06 14:21:43;;;;;;;;;;;8.50;99.90;;;;;;5054446;28;19963;-86
2022/11/06 14:24:18;;;;;;;;;;;8.50;99.90;;;;;;5045204;28;19912;-87
2022/11/06 14:26:43;;;;;;;;;;;8.40;99.90;;;;;;5057914;28;19908;-87
2022/11/06 14:29:40;;;;;;;;;;;8.40;99.90;;;;;;5045890;28;20378;-87
2022/11/06 14:32:18;;;;;;;;;;;8.30;99.90;;;;;;5050416;28;19963;-87
2022/11/06 14:34:44;;;;;;;;;;;8.30;99.90;;;;;;5064610;28;19916;-87
2022/11/06 14:37:19;;;;;;;;;;;8.20;99.90;;;;;;5053843;28;19911;-86
2022/11/06 14:39:53;;;;;;;;;;;8.20;99.90;;;;;;5031368;28;19913;-87
2022/11/06 14:42:22;;;;;;;;;;;8.20;99.90;;;;;;5053853;28;19935;-87
2022/11/06 14:44:53;;;;;;;;;;;8.10;99.90;;;;;;5047585;28;19913;-89
2022/11/06 14:47:39;;;;;;;;;;;8.10;99.90;;;;;;5050684;28;19959;-86
2022/11/06 14:50:06;;;;;;;;;;;8.10;99.90;;;;;;5062937;28;19909;-87
2022/11/06 14:52:41;;;;;;;;;;;8.10;99.90;;;;;;5071618;28;19912;-87
2022/11/06 14:55:07;;;;;;;;;;;8.00;99.90;;;;;;5050390;28;20961;-87
2022/11/06 14:57:47;;;;;;;;;;;8.00;99.90;;;;;;5070223;28;19912;-86
2022/11/06 15:00:33;;;;;;;;;;;8.00;99.90;;;;;;5049975;28;19908;-87
2022/11/06 15:02:59;;;;;;;;;;;8.00;99.90;;;;;;5016488;28;20043;-87
2022/11/06 15:05:25;;;;;;;;;;;7.90;99.90;;;;;;5027666;28;20406;-86
2022/11/06 15:08:03;;;;;;;;;;;7.90;99.90;;;;;;5058485;28;20025;-87
2022/11/06 15:10:41;;;;;;;;;;;7.90;99.90;;;;;;5045951;28;20670;-86
2022/11/06 15:13:16;;;;;;;;;;;7.80;99.90;;;;;;5071931;28;20293;-87
2022/11/06 15:15:42;;;;;;;;;;;7.70;99.90;;;;;;5054623;28;20249;-87